sensor_id;sensor_type;location;lat;lon;timestamp;P1;durP1;ratioP1;P2;durP2;ratioP2
9304;SDS011;4690;52.422;13.486;2022-11-15T00:06:12;35.77;;;30.10;;
9304;SDS011;4690;52.422;13.486;2022-11-15T00:08:38;33.23;;;29.13;;
9304;SDS011;4690;52.422;13.486;2022-11-15T00:11:04;33.93;;;28.80;;
9304;SDS011;4690;52.422;13.486;2022-11-15T00:13:29;35.10;;;30.20;;
9304;SDS011;4690;52.422;13.486;2022-11-15T00:15:59;37.17;;;31.70;;
9304;SDS011;4690;52.422;13.486;2022-11-15T00:18:26;35.77;;;31.47;;
9304;SDS011;4690;52.422;13.486;2022-11-15T00:20:53;35.30;;;31.07;;
9304;SDS011;4690;52.422;13.486;2022-11-15T00:23:19;37.47;;;32.37;;
9304;SDS011;4690;52.422;13.486;2022-11-15T00:25:45;35.40;;;31.33;;
9304;SDS011;4690;52.422;13.486;2022-11-15T00:28:10;35.47;;;30.60;;
9304;SDS011;4690;52.422;13.486;2022-11-15T00:30:36;38.43;;;31.33;;
9304;SDS011;4690;52.422;13.486;2022-11-15T00:33:03;38.50;;;31.47;;
9304;SDS011;4690;52.422;13.486;2022-11-15T00:35:33;34.77;;;30.50;;
9304;SDS011;4690;52.422;13.486;2022-11-15T00:38:00;36.40;;;31.30;;
9304;SDS011;4690;52.422;13.486;2022-11-15T00:40:26;34.67;;;29.77;;
9304;SDS011;4690;52.422;13.486;2022-11-15T00:42:52;32.10;;;28.37;;
9304;SDS011;4690;52.422;13.486;2022-11-15T00:45:18;33.47;;;29.53;;
9304;SDS011;4690;52.422;13.486;2022-11-15T00:47:44;33.47;;;29.83;;
9304;SDS011;4690;52.422;13.486;2022-11-15T00:50:11;38.77;;;31.97;;
9304;SDS011;4690;52.422;13.486;2022-11-15T00:52:38;39.90;;;33.13;;
9304;SDS011;4690;52.422;13.486;2022-11-15T00:55:04;38.20;;;31.73;;
9304;SDS011;4690;52.422;13.486;2022-11-15T00:57:30;34.33;;;30.63;;
9304;SDS011;4690;52.422;13.486;2022-11-15T00:59:56;35.40;;;31.33;;
9304;SDS011;4690;52.422;13.486;2022-11-15T01:02:21;33.57;;;29.57;;
9304;SDS011;4690;52.422;13.486;2022-11-15T01:04:47;34.40;;;30.57;;
9304;SDS011;4690;52.422;13.486;2022-11-15T01:07:13;32.70;;;29.07;;
9304;SDS011;4690;52.422;13.486;2022-11-15T01:09:39;33.87;;;28.93;;
9304;SDS011;4690;52.422;13.486;2022-11-15T01:12:07;33.90;;;28.53;;
9304;SDS011;4690;52.422;13.486;2022-11-15T01:14:33;32.30;;;28.43;;
9304;SDS011;4690;52.422;13.486;2022-11-15T01:16:59;31.37;;;27.97;;
9304;SDS011;4690;52.422;13.486;2022-11-15T01:19:25;31.43;;;28.03;;
9304;SDS011;4690;52.422;13.486;2022-11-15T01:21:50;35.37;;;29.63;;
9304;SDS011;4690;52.422;13.486;2022-11-15T01:24:16;33.20;;;29.10;;
9304;SDS011;4690;52.422;13.486;2022-11-15T01:26:42;34.17;;;28.87;;
9304;SDS011;4690;52.422;13.486;2022-11-15T01:29:08;33.20;;;28.87;;
9304;SDS011;4690;52.422;13.486;2022-11-15T01:31:34;32.57;;;28.43;;
9304;SDS011;4690;52.422;13.486;2022-11-15T01:34:00;32.60;;;28.90;;
9304;SDS011;4690;52.422;13.486;2022-11-15T01:36:25;31.83;;;28.20;;
9304;SDS011;4690;52.422;13.486;2022-11-15T01:38:54;31.20;;;27.83;;
9304;SDS011;4690;52.422;13.486;2022-11-15T01:41:29;31.50;;;27.80;;
9304;SDS011;4690;52.422;13.486;2022-11-15T01:44:30;31.50;;;27.53;;
9304;SDS011;4690;52.422;13.486;2022-11-15T01:46:55;29.80;;;26.30;;
9304;SDS011;4690;52.422;13.486;2022-11-15T01:49:24;30.80;;;27.50;;
9304;SDS011;4690;52.422;13.486;2022-11-15T01:51:53;31.63;;;28.13;;
9304;SDS011;4690;52.422;13.486;2022-11-15T01:54:20;29.67;;;26.40;;
9304;SDS011;4690;52.422;13.486;2022-11-15T01:56:50;31.00;;;27.33;;
9304;SDS011;4690;52.422;13.486;2022-11-15T01:59:24;29.07;;;25.80;;
9304;SDS011;4690;52.422;13.486;2022-11-15T02:01:51;33.10;;;27.70;;
9304;SDS011;4690;52.422;13.486;2022-11-15T02:04:27;32.03;;;27.47;;
9304;SDS011;4690;52.422;13.486;2022-11-15T02:06:57;31.87;;;27.87;;
9304;SDS011;4690;52.422;13.486;2022-11-15T02:09:27;30.17;;;26.87;;
9304;SDS011;4690;52.422;13.486;2022-11-15T02:11:52;30.47;;;27.20;;
9304;SDS011;4690;52.422;13.486;2022-11-15T02:14:21;31.77;;;27.03;;
9304;SDS011;4690;52.422;13.486;2022-11-15T02:17:12;32.73;;;28.63;;
9304;SDS011;4690;52.422;13.486;2022-11-15T02:25:51;31.13;;;27.40;;
9304;SDS011;4690;52.422;13.486;2022-11-15T02:34:27;34.33;;;28.93;;
9304;SDS011;4690;52.422;13.486;2022-11-15T02:43:12;33.70;;;28.53;;
9304;SDS011;4690;52.422;13.486;2022-11-15T02:46:12;32.87;;;28.83;;
9304;SDS011;4690;52.422;13.486;2022-11-15T02:49:13;30.80;;;27.50;;
9304;SDS011;4690;52.422;13.486;2022-11-15T02:51:40;30.80;;;27.40;;
9304;SDS011;4690;52.422;13.486;2022-11-15T02:54:14;31.93;;;27.27;;
9304;SDS011;4690;52.422;13.486;2022-11-15T02:56:47;31.17;;;27.57;;
9304;SDS011;4690;52.422;13.486;2022-11-15T02:59:37;31.97;;;28.50;;
9304;SDS011;4690;52.422;13.486;2022-11-15T03:05:09;31.10;;;27.37;;
9304;SDS011;4690;52.422;13.486;2022-11-15T03:08:05;33.40;;;29.03;;
9304;SDS011;4690;52.422;13.486;2022-11-15T03:11:12;32.23;;;27.97;;
9304;SDS011;4690;52.422;13.486;2022-11-15T03:19:40;31.23;;;27.60;;
9304;SDS011;4690;52.422;13.486;2022-11-15T03:22:16;31.83;;;27.83;;
9304;SDS011;4690;52.422;13.486;2022-11-15T03:24:47;33.40;;;28.67;;
9304;SDS011;4690;52.422;13.486;2022-11-15T03:27:21;30.87;;;27.07;;
9304;SDS011;4690;52.422;13.486;2022-11-15T03:29:52;33.07;;;28.17;;
9304;SDS011;4690;52.422;13.486;2022-11-15T03:32:26;30.77;;;27.40;;
9304;SDS011;4690;52.422;13.486;2022-11-15T03:35:05;31.57;;;27.90;;
9304;SDS011;4690;52.422;13.486;2022-11-15T03:40:38;30.63;;;26.90;;
9304;SDS011;4690;52.422;13.486;2022-11-15T03:46:10;31.43;;;27.00;;
9304;SDS011;4690;52.422;13.486;2022-11-15T03:48:53;32.33;;;28.07;;
9304;SDS011;4690;52.422;13.486;2022-11-15T03:51:34;31.27;;;27.87;;
9304;SDS011;4690;52.422;13.486;2022-11-15T03:54:02;32.40;;;28.13;;
9304;SDS011;4690;52.422;13.486;2022-11-15T03:56:31;31.23;;;27.83;;
9304;SDS011;4690;52.422;13.486;2022-11-15T03:58:57;33.27;;;27.83;;
9304;SDS011;4690;52.422;13.486;2022-11-15T04:01:23;32.60;;;28.60;;
9304;SDS011;4690;52.422;13.486;2022-11-15T04:03:49;31.67;;;27.57;;
9304;SDS011;4690;52.422;13.486;2022-11-15T04:06:15;31.23;;;26.83;;
9304;SDS011;4690;52.422;13.486;2022-11-15T04:08:40;33.37;;;28.53;;
9304;SDS011;4690;52.422;13.486;2022-11-15T04:11:06;33.53;;;28.57;;
9304;SDS011;4690;52.422;13.486;2022-11-15T04:13:32;33.90;;;29.07;;
9304;SDS011;4690;52.422;13.486;2022-11-15T04:15:58;31.30;;;27.53;;
9304;SDS011;4690;52.422;13.486;2022-11-15T04:18:24;32.20;;;28.13;;
9304;SDS011;4690;52.422;13.486;2022-11-15T04:20:50;31.70;;;27.20;;
9304;SDS011;4690;52.422;13.486;2022-11-15T04:23:34;32.47;;;28.20;;
9304;SDS011;4690;52.422;13.486;2022-11-15T04:26:32;30.80;;;27.30;;
9304;SDS011;4690;52.422;13.486;2022-11-15T04:28:58;31.80;;;27.67;;
9304;SDS011;4690;52.422;13.486;2022-11-15T04:31:42;31.90;;;28.27;;
9304;SDS011;4690;52.422;13.486;2022-11-15T04:34:08;30.70;;;26.33;;
9304;SDS011;4690;52.422;13.486;2022-11-15T04:36:33;31.23;;;27.83;;
9304;SDS011;4690;52.422;13.486;2022-11-15T04:39:18;30.70;;;27.40;;
9304;SDS011;4690;52.422;13.486;2022-11-15T04:41:43;31.07;;;27.33;;
9304;SDS011;4690;52.422;13.486;2022-11-15T04:44:09;33.17;;;28.40;;
9304;SDS011;4690;52.422;13.486;2022-11-15T04:46:35;32.03;;;27.53;;
9304;SDS011;4690;52.422;13.486;2022-11-15T04:49:01;34.97;;;29.63;;
9304;SDS011;4690;52.422;13.486;2022-11-15T04:51:26;32.33;;;27.27;;
9304;SDS011;4690;52.422;13.486;2022-11-15T04:53:52;32.67;;;28.93;;
9304;SDS011;4690;52.422;13.486;2022-11-15T04:56:18;32.63;;;27.63;;
9304;SDS011;4690;52.422;13.486;2022-11-15T04:58:44;31.07;;;27.37;;
9304;SDS011;4690;52.422;13.486;2022-11-15T05:01:11;32.87;;;28.00;;
9304;SDS011;4690;52.422;13.486;2022-11-15T05:03:39;31.67;;;27.20;;
9304;SDS011;4690;52.422;13.486;2022-11-15T05:06:24;30.90;;;27.60;;
9304;SDS011;4690;52.422;13.486;2022-11-15T05:08:50;31.00;;;27.27;;
9304;SDS011;4690;52.422;13.486;2022-11-15T05:11:16;32.93;;;28.57;;
9304;SDS011;4690;52.422;13.486;2022-11-15T05:13:42;36.80;;;30.43;;
9304;SDS011;4690;52.422;13.486;2022-11-15T05:16:08;31.37;;;27.30;;
9304;SDS011;4690;52.422;13.486;2022-11-15T05:18:34;33.37;;;29.23;;
9304;SDS011;4690;52.422;13.486;2022-11-15T05:21:04;32.77;;;29.03;;
9304;SDS011;4690;52.422;13.486;2022-11-15T05:23:36;31.77;;;28.03;;
9304;SDS011;4690;52.422;13.486;2022-11-15T05:26:02;33.07;;;29.20;;
9304;SDS011;4690;52.422;13.486;2022-11-15T05:28:30;32.67;;;28.50;;
9304;SDS011;4690;52.422;13.486;2022-11-15T05:31:15;32.80;;;27.90;;
9304;SDS011;4690;52.422;13.486;2022-11-15T05:33:41;35.20;;;29.07;;
9304;SDS011;4690;52.422;13.486;2022-11-15T05:39:04;34.67;;;28.70;;
9304;SDS011;4690;52.422;13.486;2022-11-15T05:41:53;32.70;;;29.13;;
9304;SDS011;4690;52.422;13.486;2022-11-15T05:44:24;34.50;;;29.70;;
9304;SDS011;4690;52.422;13.486;2022-11-15T05:46:51;32.70;;;28.90;;
9304;SDS011;4690;52.422;13.486;2022-11-15T05:49:21;35.60;;;29.40;;
9304;SDS011;4690;52.422;13.486;2022-11-15T05:51:54;32.47;;;28.33;;
9304;SDS011;4690;52.422;13.486;2022-11-15T05:54:23;32.77;;;28.57;;
9304;SDS011;4690;52.422;13.486;2022-11-15T05:56:50;32.63;;;27.77;;
9304;SDS011;4690;52.422;13.486;2022-11-15T05:59:16;30.73;;;27.10;;
9304;SDS011;4690;52.422;13.486;2022-11-15T06:01:43;31.43;;;27.77;;
9304;SDS011;4690;52.422;13.486;2022-11-15T06:04:09;32.03;;;28.47;;
9304;SDS011;4690;52.422;13.486;2022-11-15T06:06:35;33.43;;;27.50;;
9304;SDS011;4690;52.422;13.486;2022-11-15T06:09:01;33.37;;;29.57;;
9304;SDS011;4690;52.422;13.486;2022-11-15T06:11:27;35.97;;;31.23;;
9304;SDS011;4690;52.422;13.486;2022-11-15T06:13:53;37.43;;;31.13;;
9304;SDS011;4690;52.422;13.486;2022-11-15T06:16:19;37.10;;;32.17;;
9304;SDS011;4690;52.422;13.486;2022-11-15T06:18:45;37.90;;;31.63;;
9304;SDS011;4690;52.422;13.486;2022-11-15T06:21:11;35.83;;;29.67;;
9304;SDS011;4690;52.422;13.486;2022-11-15T06:23:37;36.43;;;30.90;;
9304;SDS011;4690;52.422;13.486;2022-11-15T06:26:03;36.27;;;29.87;;
9304;SDS011;4690;52.422;13.486;2022-11-15T06:28:32;35.40;;;31.20;;
9304;SDS011;4690;52.422;13.486;2022-11-15T06:31:05;34.20;;;29.80;;
9304;SDS011;4690;52.422;13.486;2022-11-15T06:33:33;36.63;;;30.67;;
9304;SDS011;4690;52.422;13.486;2022-11-15T06:36:00;34.57;;;29.53;;
9304;SDS011;4690;52.422;13.486;2022-11-15T06:38:27;34.47;;;30.03;;
9304;SDS011;4690;52.422;13.486;2022-11-15T06:40:53;33.37;;;29.33;;
9304;SDS011;4690;52.422;13.486;2022-11-15T06:43:19;32.50;;;28.27;;
9304;SDS011;4690;52.422;13.486;2022-11-15T06:45:44;36.50;;;30.60;;
9304;SDS011;4690;52.422;13.486;2022-11-15T06:48:13;32.10;;;28.60;;
9304;SDS011;4690;52.422;13.486;2022-11-15T06:50:39;33.50;;;28.57;;
9304;SDS011;4690;52.422;13.486;2022-11-15T06:53:05;31.63;;;27.37;;
9304;SDS011;4690;52.422;13.486;2022-11-15T06:55:30;36.30;;;31.10;;
9304;SDS011;4690;52.422;13.486;2022-11-15T06:57:56;42.83;;;35.83;;
9304;SDS011;4690;52.422;13.486;2022-11-15T07:00:22;42.80;;;35.83;;
9304;SDS011;4690;52.422;13.486;2022-11-15T07:02:48;38.30;;;31.80;;
9304;SDS011;4690;52.422;13.486;2022-11-15T07:05:14;37.00;;;31.47;;
9304;SDS011;4690;52.422;13.486;2022-11-15T07:07:40;37.53;;;31.83;;
9304;SDS011;4690;52.422;13.486;2022-11-15T07:10:07;35.93;;;31.47;;
9304;SDS011;4690;52.422;13.486;2022-11-15T07:12:34;37.37;;;32.20;;
9304;SDS011;4690;52.422;13.486;2022-11-15T07:15:00;36.13;;;31.33;;
9304;SDS011;4690;52.422;13.486;2022-11-15T07:17:26;35.73;;;30.87;;
9304;SDS011;4690;52.422;13.486;2022-11-15T07:19:51;33.13;;;28.87;;
9304;SDS011;4690;52.422;13.486;2022-11-15T07:22:17;33.90;;;28.30;;
9304;SDS011;4690;52.422;13.486;2022-11-15T07:24:43;32.97;;;28.33;;
9304;SDS011;4690;52.422;13.486;2022-11-15T07:27:08;32.00;;;28.50;;
9304;SDS011;4690;52.422;13.486;2022-11-15T07:29:34;37.70;;;29.30;;
9304;SDS011;4690;52.422;13.486;2022-11-15T07:32:00;32.47;;;28.47;;
9304;SDS011;4690;52.422;13.486;2022-11-15T07:34:26;34.73;;;29.43;;
9304;SDS011;4690;52.422;13.486;2022-11-15T07:36:51;33.33;;;28.57;;
9304;SDS011;4690;52.422;13.486;2022-11-15T07:39:17;33.73;;;28.47;;
9304;SDS011;4690;52.422;13.486;2022-11-15T07:41:43;32.23;;;27.73;;
9304;SDS011;4690;52.422;13.486;2022-11-15T07:44:08;29.50;;;26.30;;
9304;SDS011;4690;52.422;13.486;2022-11-15T07:46:34;32.73;;;28.40;;
9304;SDS011;4690;52.422;13.486;2022-11-15T07:49:00;31.50;;;27.77;;
9304;SDS011;4690;52.422;13.486;2022-11-15T07:51:25;36.47;;;31.40;;
9304;SDS011;4690;52.422;13.486;2022-11-15T07:53:51;34.13;;;29.07;;
9304;SDS011;4690;52.422;13.486;2022-11-15T07:56:17;36.17;;;30.80;;
9304;SDS011;4690;52.422;13.486;2022-11-15T07:58:45;36.60;;;31.27;;
9304;SDS011;4690;52.422;13.486;2022-11-15T08:01:11;37.20;;;32.30;;
9304;SDS011;4690;52.422;13.486;2022-11-15T08:03:37;36.90;;;31.40;;
9304;SDS011;4690;52.422;13.486;2022-11-15T08:06:06;40.03;;;32.63;;
9304;SDS011;4690;52.422;13.486;2022-11-15T08:08:31;43.23;;;35.20;;
9304;SDS011;4690;52.422;13.486;2022-11-15T08:10:57;40.47;;;34.67;;
9304;SDS011;4690;52.422;13.486;2022-11-15T08:13:24;46.20;;;35.40;;
9304;SDS011;4690;52.422;13.486;2022-11-15T08:15:49;43.40;;;34.90;;
9304;SDS011;4690;52.422;13.486;2022-11-15T08:18:15;43.33;;;34.47;;
9304;SDS011;4690;52.422;13.486;2022-11-15T08:20:42;39.40;;;33.03;;
9304;SDS011;4690;52.422;13.486;2022-11-15T08:23:09;38.67;;;31.63;;
9304;SDS011;4690;52.422;13.486;2022-11-15T08:25:37;36.67;;;31.07;;
9304;SDS011;4690;52.422;13.486;2022-11-15T08:28:04;36.17;;;30.80;;
9304;SDS011;4690;52.422;13.486;2022-11-15T08:30:36;32.07;;;28.50;;
9304;SDS011;4690;52.422;13.486;2022-11-15T08:33:09;33.33;;;28.17;;
9304;SDS011;4690;52.422;13.486;2022-11-15T08:35:37;34.53;;;28.17;;
9304;SDS011;4690;52.422;13.486;2022-11-15T08:38:04;32.27;;;28.77;;
9304;SDS011;4690;52.422;13.486;2022-11-15T08:40:30;31.20;;;27.40;;
9304;SDS011;4690;52.422;13.486;2022-11-15T08:42:55;30.47;;;26.13;;
9304;SDS011;4690;52.422;13.486;2022-11-15T08:45:23;31.03;;;26.70;;
9304;SDS011;4690;52.422;13.486;2022-11-15T08:47:49;28.83;;;25.20;;
9304;SDS011;4690;52.422;13.486;2022-11-15T08:50:15;30.90;;;25.17;;
9304;SDS011;4690;52.422;13.486;2022-11-15T08:52:41;34.23;;;26.83;;
9304;SDS011;4690;52.422;13.486;2022-11-15T08:55:07;30.37;;;26.70;;
9304;SDS011;4690;52.422;13.486;2022-11-15T08:57:33;31.13;;;25.77;;
9304;SDS011;4690;52.422;13.486;2022-11-15T08:59:59;32.50;;;25.53;;
9304;SDS011;4690;52.422;13.486;2022-11-15T09:02:25;31.53;;;25.53;;
9304;SDS011;4690;52.422;13.486;2022-11-15T09:04:50;29.10;;;24.83;;
9304;SDS011;4690;52.422;13.486;2022-11-15T09:07:16;32.27;;;27.80;;
9304;SDS011;4690;52.422;13.486;2022-11-15T09:09:42;29.40;;;25.03;;
9304;SDS011;4690;52.422;13.486;2022-11-15T09:12:08;29.13;;;25.50;;
9304;SDS011;4690;52.422;13.486;2022-11-15T09:14:34;28.27;;;24.63;;
9304;SDS011;4690;52.422;13.486;2022-11-15T09:17:00;30.83;;;25.53;;
9304;SDS011;4690;52.422;13.486;2022-11-15T09:19:26;31.93;;;24.63;;
9304;SDS011;4690;52.422;13.486;2022-11-15T09:21:52;28.27;;;23.60;;
9304;SDS011;4690;52.422;13.486;2022-11-15T09:24:18;27.10;;;22.87;;
9304;SDS011;4690;52.422;13.486;2022-11-15T09:26:44;27.07;;;22.63;;
9304;SDS011;4690;52.422;13.486;2022-11-15T09:29:09;25.00;;;21.50;;
9304;SDS011;4690;52.422;13.486;2022-11-15T09:31:35;27.00;;;23.03;;
9304;SDS011;4690;52.422;13.486;2022-11-15T09:34:01;26.60;;;23.03;;
9304;SDS011;4690;52.422;13.486;2022-11-15T09:36:27;26.73;;;22.00;;
9304;SDS011;4690;52.422;13.486;2022-11-15T09:38:52;27.27;;;21.43;;
9304;SDS011;4690;52.422;13.486;2022-11-15T09:49:35;25.10;;;21.57;;
9304;SDS011;4690;52.422;13.486;2022-11-15T09:52:01;27.17;;;20.90;;
9304;SDS011;4690;52.422;13.486;2022-11-15T10:05:38;23.43;;;20.53;;
9304;SDS011;4690;52.422;13.486;2022-11-15T10:08:31;24.27;;;20.20;;
9304;SDS011;4690;52.422;13.486;2022-11-15T10:11:28;23.93;;;19.20;;
9304;SDS011;4690;52.422;13.486;2022-11-15T10:14:01;25.00;;;20.20;;
9304;SDS011;4690;52.422;13.486;2022-11-15T10:22:39;21.23;;;18.87;;
9304;SDS011;4690;52.422;13.486;2022-11-15T10:30:42;21.93;;;18.80;;
9304;SDS011;4690;52.422;13.486;2022-11-15T10:33:31;23.47;;;20.07;;
9304;SDS011;4690;52.422;13.486;2022-11-15T10:44:01;21.23;;;18.93;;
9304;SDS011;4690;52.422;13.486;2022-11-15T10:49:29;23.03;;;18.73;;
9304;SDS011;4690;52.422;13.486;2022-11-15T10:54:45;21.30;;;18.63;;
9304;SDS011;4690;52.422;13.486;2022-11-15T10:57:24;24.40;;;18.73;;
9304;SDS011;4690;52.422;13.486;2022-11-15T10:59:55;21.77;;;18.53;;
9304;SDS011;4690;52.422;13.486;2022-11-15T11:02:30;19.90;;;17.30;;
9304;SDS011;4690;52.422;13.486;2022-11-15T11:04:56;25.47;;;17.70;;
9304;SDS011;4690;52.422;13.486;2022-11-15T11:07:24;18.43;;;16.03;;
9304;SDS011;4690;52.422;13.486;2022-11-15T11:10:04;18.60;;;16.70;;
9304;SDS011;4690;52.422;13.486;2022-11-15T11:12:44;19.02;;;15.30;;
9304;SDS011;4690;52.422;13.486;2022-11-15T11:15:14;19.90;;;17.25;;
9304;SDS011;4690;52.422;13.486;2022-11-15T11:37:37;18.45;;;16.45;;
9304;SDS011;4690;52.422;13.486;2022-11-15T11:45:27;16.58;;;14.05;;
9304;SDS011;4690;52.422;13.486;2022-11-15T11:48:20;18.17;;;15.60;;
9304;SDS011;4690;52.422;13.486;2022-11-15T11:54:17;17.75;;;14.65;;
9304;SDS011;4690;52.422;13.486;2022-11-15T11:56:55;14.73;;;13.23;;
9304;SDS011;4690;52.422;13.486;2022-11-15T12:02:15;14.18;;;12.68;;
9304;SDS011;4690;52.422;13.486;2022-11-15T12:04:51;14.43;;;12.38;;
9304;SDS011;4690;52.422;13.486;2022-11-15T12:07:29;14.00;;;12.50;;
9304;SDS011;4690;52.422;13.486;2022-11-15T12:15:42;11.88;;;10.68;;
9304;SDS011;4690;52.422;13.486;2022-11-15T12:18:43;13.13;;;11.75;;
9304;SDS011;4690;52.422;13.486;2022-11-15T12:21:20;16.80;;;13.50;;
9304;SDS011;4690;52.422;13.486;2022-11-15T12:24:00;14.02;;;12.60;;
9304;SDS011;4690;52.422;13.486;2022-11-15T12:26:38;14.95;;;13.38;;
9304;SDS011;4690;52.422;13.486;2022-11-15T12:29:23;15.70;;;13.60;;
9304;SDS011;4690;52.422;13.486;2022-11-15T12:32:14;16.08;;;13.82;;
9304;SDS011;4690;52.422;13.486;2022-11-15T12:34:54;14.65;;;13.25;;
9304;SDS011;4690;52.422;13.486;2022-11-15T12:42:34;15.82;;;13.50;;
9304;SDS011;4690;52.422;13.486;2022-11-15T12:45:23;14.70;;;13.13;;
9304;SDS011;4690;52.422;13.486;2022-11-15T12:56:15;13.95;;;12.13;;
9304;SDS011;4690;52.422;13.486;2022-11-15T13:07:02;17.60;;;12.60;;
9304;SDS011;4690;52.422;13.486;2022-11-15T13:12:01;11.25;;;10.05;;
9304;SDS011;4690;52.422;13.486;2022-11-15T13:28:44;12.00;;;10.02;;
9304;SDS011;4690;52.422;13.486;2022-11-15T13:34:26;14.25;;;12.00;;
9304;SDS011;4690;52.422;13.486;2022-11-15T13:37:01;15.90;;;12.50;;
9304;SDS011;4690;52.422;13.486;2022-11-15T13:39:32;14.15;;;12.63;;
9304;SDS011;4690;52.422;13.486;2022-11-15T13:42:01;15.63;;;12.82;;
9304;SDS011;4690;52.422;13.486;2022-11-15T13:44:28;12.88;;;11.65;;
9304;SDS011;4690;52.422;13.486;2022-11-15T13:47:09;14.80;;;13.00;;
9304;SDS011;4690;52.422;13.486;2022-11-15T13:49:39;14.05;;;12.70;;
9304;SDS011;4690;52.422;13.486;2022-11-15T13:52:07;14.35;;;12.00;;
9304;SDS011;4690;52.422;13.486;2022-11-15T13:54:43;15.20;;;12.70;;
9304;SDS011;4690;52.422;13.486;2022-11-15T13:57:26;15.50;;;13.00;;
9304;SDS011;4690;52.422;13.486;2022-11-15T14:00:05;16.63;;;12.07;;
9304;SDS011;4690;52.422;13.486;2022-11-15T14:03:12;14.65;;;12.70;;
9304;SDS011;4690;52.422;13.486;2022-11-15T14:08:37;13.98;;;12.50;;
9304;SDS011;4690;52.422;13.486;2022-11-15T14:11:10;12.82;;;11.10;;
9304;SDS011;4690;52.422;13.486;2022-11-15T14:16:53;13.73;;;11.85;;
9304;SDS011;4690;52.422;13.486;2022-11-15T14:30:48;11.13;;;10.02;;
9304;SDS011;4690;52.422;13.486;2022-11-15T14:33:32;12.45;;;11.20;;
9304;SDS011;4690;52.422;13.486;2022-11-15T14:36:14;13.23;;;11.80;;
9304;SDS011;4690;52.422;13.486;2022-11-15T14:38:43;14.90;;;12.00;;
9304;SDS011;4690;52.422;13.486;2022-11-15T14:41:21;13.63;;;11.50;;
9304;SDS011;4690;52.422;13.486;2022-11-15T14:43:57;11.65;;;10.45;;
9304;SDS011;4690;52.422;13.486;2022-11-15T14:46:23;12.93;;;10.75;;
9304;SDS011;4690;52.422;13.486;2022-11-15T14:48:48;13.52;;;12.13;;
9304;SDS011;4690;52.422;13.486;2022-11-15T14:51:18;13.68;;;12.23;;
9304;SDS011;4690;52.422;13.486;2022-11-15T14:53:44;13.75;;;12.23;;
9304;SDS011;4690;52.422;13.486;2022-11-15T14:56:11;14.10;;;12.27;;
9304;SDS011;4690;52.422;13.486;2022-11-15T14:58:38;15.63;;;12.00;;
9304;SDS011;4690;52.422;13.486;2022-11-15T15:01:13;14.27;;;11.33;;
9304;SDS011;4690;52.422;13.486;2022-11-15T15:03:51;14.43;;;12.70;;
9304;SDS011;4690;52.422;13.486;2022-11-15T15:06:20;16.13;;;11.90;;
9304;SDS011;4690;52.422;13.486;2022-11-15T15:08:46;13.73;;;11.63;;
9304;SDS011;4690;52.422;13.486;2022-11-15T15:11:23;13.40;;;11.07;;
9304;SDS011;4690;52.422;13.486;2022-11-15T15:13:55;14.60;;;12.50;;
9304;SDS011;4690;52.422;13.486;2022-11-15T15:16:23;14.20;;;12.43;;
9304;SDS011;4690;52.422;13.486;2022-11-15T15:18:49;15.97;;;13.30;;
9304;SDS011;4690;52.422;13.486;2022-11-15T15:23:51;16.67;;;13.83;;
9304;SDS011;4690;52.422;13.486;2022-11-15T15:26:19;14.33;;;12.47;;
9304;SDS011;4690;52.422;13.486;2022-11-15T15:28:45;13.97;;;12.47;;
9304;SDS011;4690;52.422;13.486;2022-11-15T15:31:13;14.07;;;12.50;;
9304;SDS011;4690;52.422;13.486;2022-11-15T15:33:39;14.07;;;12.67;;
9304;SDS011;4690;52.422;13.486;2022-11-15T15:36:08;14.20;;;12.70;;
9304;SDS011;4690;52.422;13.486;2022-11-15T15:38:39;14.93;;;13.33;;
9304;SDS011;4690;52.422;13.486;2022-11-15T15:41:10;14.50;;;13.00;;
9304;SDS011;4690;52.422;13.486;2022-11-15T15:43:37;13.33;;;11.93;;
9304;SDS011;4690;52.422;13.486;2022-11-15T15:46:04;13.70;;;12.30;;
9304;SDS011;4690;52.422;13.486;2022-11-15T15:48:34;13.77;;;12.17;;
9304;SDS011;4690;52.422;13.486;2022-11-15T15:51:02;13.33;;;11.93;;
9304;SDS011;4690;52.422;13.486;2022-11-15T15:53:28;14.13;;;12.60;;
9304;SDS011;4690;52.422;13.486;2022-11-15T15:55:55;14.20;;;12.70;;
9304;SDS011;4690;52.422;13.486;2022-11-15T15:58:21;15.93;;;12.93;;
9304;SDS011;4690;52.422;13.486;2022-11-15T16:00:46;15.07;;;13.50;;
9304;SDS011;4690;52.422;13.486;2022-11-15T16:03:12;14.60;;;12.87;;
9304;SDS011;4690;52.422;13.486;2022-11-15T16:05:38;16.00;;;14.10;;
9304;SDS011;4690;52.422;13.486;2022-11-15T16:08:04;15.80;;;14.20;;
9304;SDS011;4690;52.422;13.486;2022-11-15T16:10:33;16.17;;;14.43;;
9304;SDS011;4690;52.422;13.486;2022-11-15T16:12:59;18.20;;;15.77;;
9304;SDS011;4690;52.422;13.486;2022-11-15T16:15:26;16.37;;;14.67;;
9304;SDS011;4690;52.422;13.486;2022-11-15T16:17:56;19.23;;;16.63;;
9304;SDS011;4690;52.422;13.486;2022-11-15T16:23:08;19.20;;;16.53;;
9304;SDS011;4690;52.422;13.486;2022-11-15T16:25:38;17.60;;;15.77;;
9304;SDS011;4690;52.422;13.486;2022-11-15T16:30:43;16.53;;;14.37;;
9304;SDS011;4690;52.422;13.486;2022-11-15T16:33:09;17.07;;;15.33;;
9304;SDS011;4690;52.422;13.486;2022-11-15T16:35:35;19.53;;;16.77;;
9304;SDS011;4690;52.422;13.486;2022-11-15T16:38:01;21.17;;;18.60;;
9304;SDS011;4690;52.422;13.486;2022-11-15T16:40:27;20.27;;;18.17;;
9304;SDS011;4690;52.422;13.486;2022-11-15T16:43:01;23.60;;;18.97;;
9304;SDS011;4690;52.422;13.486;2022-11-15T16:45:28;20.97;;;18.70;;
9304;SDS011;4690;52.422;13.486;2022-11-15T16:47:55;22.97;;;19.50;;
9304;SDS011;4690;52.422;13.486;2022-11-15T16:50:22;25.80;;;20.67;;
9304;SDS011;4690;52.422;13.486;2022-11-15T16:52:52;22.33;;;19.93;;
9304;SDS011;4690;52.422;13.486;2022-11-15T16:55:23;25.33;;;21.43;;
9304;SDS011;4690;52.422;13.486;2022-11-15T16:57:53;23.73;;;21.17;;
9304;SDS011;4690;52.422;13.486;2022-11-15T17:00:22;24.30;;;21.70;;
9304;SDS011;4690;52.422;13.486;2022-11-15T17:02:49;26.07;;;22.30;;
9304;SDS011;4690;52.422;13.486;2022-11-15T17:05:16;25.67;;;22.77;;
9304;SDS011;4690;52.422;13.486;2022-11-15T17:07:48;26.27;;;22.53;;
9304;SDS011;4690;52.422;13.486;2022-11-15T17:10:18;26.10;;;23.37;;
9304;SDS011;4690;52.422;13.486;2022-11-15T17:12:49;27.27;;;22.90;;
9304;SDS011;4690;52.422;13.486;2022-11-15T17:15:16;27.30;;;23.73;;
9304;SDS011;4690;52.422;13.486;2022-11-15T17:17:43;28.20;;;25.20;;
9304;SDS011;4690;52.422;13.486;2022-11-15T17:20:19;28.93;;;25.77;;
9304;SDS011;4690;52.422;13.486;2022-11-15T17:22:48;30.60;;;25.50;;
9304;SDS011;4690;52.422;13.486;2022-11-15T17:25:14;33.47;;;29.10;;
9304;SDS011;4690;52.422;13.486;2022-11-15T17:27:40;35.07;;;29.63;;
9304;SDS011;4690;52.422;13.486;2022-11-15T17:30:07;33.07;;;29.47;;
9304;SDS011;4690;52.422;13.486;2022-11-15T17:32:36;36.63;;;31.23;;
9304;SDS011;4690;52.422;13.486;2022-11-15T17:35:02;37.57;;;31.87;;
9304;SDS011;4690;52.422;13.486;2022-11-15T17:37:31;40.33;;;31.83;;
9304;SDS011;4690;52.422;13.486;2022-11-15T17:39:58;36.77;;;32.20;;
9304;SDS011;4690;52.422;13.486;2022-11-15T17:42:24;39.00;;;33.23;;
9304;SDS011;4690;52.422;13.486;2022-11-15T17:44:49;42.23;;;34.50;;
9304;SDS011;4690;52.422;13.486;2022-11-15T17:47:18;41.63;;;33.27;;
9304;SDS011;4690;52.422;13.486;2022-11-15T17:49:43;42.00;;;34.37;;
9304;SDS011;4690;52.422;13.486;2022-11-15T17:52:09;42.93;;;35.73;;
9304;SDS011;4690;52.422;13.486;2022-11-15T17:54:35;40.90;;;34.77;;
9304;SDS011;4690;52.422;13.486;2022-11-15T17:57:01;43.63;;;35.27;;
9304;SDS011;4690;52.422;13.486;2022-11-15T17:59:27;46.20;;;37.60;;